ADDS TAF Data INFO
IDs: Format: Raw Decoded Include METARs

Data at: 2156 UTC 24 Feb 2018

KTYS 242153Z 22009KT 10SM OVC065 22/14 A2999 RMK AO2 SLP148 T02170144

KTYS 242039Z 2421/2518 22012KT P6SM SCT030 BKN050
  FM250000 20012KT P6SM OVC050
  FM251200 22014G22KT 3SM -SHRA OVC020
  FM251600 25005KT P6SM VCSH SCT010 OVC020


KGSO 242154Z 21014G17KT 10SM SCT046 BKN100 23/15 A3004 RMK AO2 SLP166 T02330150

KGSO 241731Z 2418/2518 19008G15KT P6SM OVC090
  FM242300 21006KT P6SM BKN150
  FM251000 21008G16KT P6SM BKN020
  TEMPO 2510/2513 BKN012 OVC020
  FM251300 22011G19KT P6SM BKN020
  FM251600 22011G19KT P6SM BKN045


KCLT 242152Z 21014KT 10SM FEW050 BKN065 BKN250 26/14 A3006 RMK AO2 SLP175 T02560144

KCLT 241951Z 2420/2524 19012G18KT P6SM SCT040 BKN120
  FM251200 20010G18KT P6SM BKN007
  FM251500 21010G20KT P6SM VCSH BKN015
  FM251800 22010G18KT 6SM -SHRA OVC022
  PROB30 2520/2524 4SM -TSRA OVC012CB


KRDU 242151Z 20012KT 10SM SCT045 BKN070 BKN250 24/16 A3006 RMK AO2 SLP174 T02440156

KRDU 241731Z 2418/2518 23012G19KT P6SM SCT025 BKN120
  FM242000 22008KT P6SM SCT150
  FM250900 21009G15KT P6SM SCT012 BKN050
  TEMPO 2510/2513 BKN012 BKN050
  FM251500 22012G19KT P6SM SCT025 BKN050


KPOB 242145Z AUTO 21008KT 10SM FEW048 OVC075 25/15 A3007 RMK AO2 SLP184 $

TAF AMD KPOB 241930Z 2419/2524 24012KT 9999 SCT040 QNH3009INS
  BECMG 2423/2424 18006KT 9999 SCT090 QNH3008INS
  BECMG 2506/2507 20012KT 9999 SCT003 BKN023 510102 QNH3007INS
  BECMG 2508/2509 20012KT 9999 OVC003 510107 QNH3007INS
  BECMG 2514/2515 22010G15KT 9999 SCT005 BKN012 510208 QNH3005INS
  BECMG 2516/2517 22012G18KT 9999 SCT020 BKN250 QNH3001INS
  BECMG 2521/2522 23003KT 9999 FEW030 BKN060 QNH3004INS TX27/2421Z TN14/2512Z


KFBG 242056Z AUTO 21008G15KT 10SM FEW045 26/15 A3008 RMK AO2 SLP187 T02610145 57030 $

TAF AMD KFBG 241930Z 2419/2524 24012KT 9999 FEW040 QNH3009INS
  BECMG 2423/2424 18006KT 9999 SCT090 QNH3008INS
  BECMG 2506/2507 20012KT 9999 SCT003 BKN023 510102 QNH3007INS
  BECMG 2508/2509 20012KT 9999 OVC003 510107 QNH3007INS
  BECMG 2514/2515 22010G15KT 9999 SCT005 BKN012 510208 QNH3005INS
  BECMG 2516/2517 22012G18KT 9999 SCT020 BKN250 QNH3001INS
  BECMG 2521/2522 23003KT 9999 FEW030 BKN060 QNH3004INS TX27/2421Z TN14/2512Z


KFAY 242153Z 21012KT 10SM CLR 26/14 A3007 RMK AO2 SLP177 T02610144

KFAY 241731Z 2418/2518 22012G16KT P6SM OVC025
  FM242000 22009G16KT P6SM SCT030 BKN200
  FM250900 21009G15KT P6SM SCT012 BKN050
  TEMPO 2510/2513 BKN012 BKN050
  FM251500 22012G19KT P6SM SCT025 BKN050


KRWI 242153Z AUTO 20009KT 10SM FEW044 24/16 A3009 RMK AO2 SLP188 T02390156

KRWI 241731Z 2418/2518 22009G16KT P6SM SCT028
  FM242000 22009G16KT P6SM SCT030 BKN200
  FM250900 21009G15KT P6SM SCT012 BKN050
  TEMPO 2510/2513 BKN012 BKN050
  FM251500 22012G19KT P6SM SCT025 BKN050


KISO 242056Z 23010G15KT 10SM FEW030 26/14 A3012 RMK AO2

KISO 241723Z 2418/2518 22011G17KT P6SM SCT040
  TEMPO 2418/2419 BKN025
  FM242300 20008KT P6SM SCT250
  FM251000 21006KT P6SM BKN010
  FM251400 22012G22KT P6SM SCT040 AMD LTD TO CLD VIS AND WIND


KGWW 242135Z AUTO 22011KT 10SM CLR 25/16 A3010 RMK AO2 T02460160

No TAF found for KGWW

KGSB 242056Z AUTO 20009KT 10SM FEW042 26/16 A3009 RMK AO2 SLP192 T02570157 57025 $

TAF KGSB 242100Z 2421/2603 20009KT 9999 SCT250 QNH3007INS
  BECMG 2506/2507 19009KT 6000 BR BKN012 QNH3006INS
  BECMG 2509/2510 20007KT 4800 BR OVC007 QNH3005INS
  BECMG 2515/2516 20010G15KT 9999 NSW BKN018 QNH3003INS
  BECMG 2518/2519 22012G18KT 9999 SCT025 SCT230 QNH2998INS
  BECMG 2522/2523 24006KT 9999 SCT050 BKN070 QNH3005INS
  BECMG 2600/2601 31003KT 6000 RA BR SCT005 BKN011 OVC020 QNH3009INS TX27/2421Z TN16/2511Z


KDPL 242135Z AUTO 24008G15KT 10SM SCT048 SCT065 26/15 A3011 RMK AO2

No TAF found for KDPL

KCTZ 242135Z AUTO 24006KT 10SM CLR 25/15 A3011 RMK AO2 T02530154

No TAF found for KCTZ

KORF 242151Z 24012G17KT 10SM CLR 25/15 A3006 RMK AO2 SLP177 T02500150

KORF 241728Z 2418/2518 23012KT P6SM SCT045
  FM250000 19006KT P6SM BKN100
  FM251100 21010KT P6SM BKN250
  FM251500 22012G20KT P6SM BKN250


KLFI 242056Z AUTO 24012G20KT 10SM FEW048 24/16 A3006 RMK AO2 SLP186 T02380161 56011

TAF KLFI 241800Z 2418/2524 22012KT 9999 FEW010 BKN030 QNH3009INS
  BECMG 2502/2503 20006KT 9999 FEW010 SCT060 BKN070 WS020/23034KT QNH3006INS
  BECMG 2508/2509 21009KT 9999 OVC005 WS020/23041KT QNH3004INS
  BECMG 2513/2514 21012KT 9999 OVC005 WS020/23046KT QNH3003INS
  BECMG 2517/2518 22012KT 9999 BKN010 510204 QNH2997INS
  BECMG 2520/2521 22012KT 9999 SCT020 BKN100 QNH2997INS TX25/2420Z TN15/2506Z


KNTU 242056Z 23017G23KT 10SM FEW045 FEW180 SCT250 25/14 A3006 RMK AO2 SLP182 T02500144 56013

TAF KNTU 2415/2515 21006KT 6000 BR OVC004 QNH3008INS
  FM241600 23008KT 9999 BKN060 OVC100 QNH3010INS
  FM250000 18006KT 9999 BKN060 OVC080 QNH3009INS
  TEMPO 2503/2507 8000 SHRA BR T17/2415Z T24/2420Z FN00185


KECG 242154Z 21009KT 10SM CLR 23/17 A3009 RMK AO2 SLP188 T02330167

KECG 241728Z 2418/2518 22012KT P6SM SCT250
  FM242300 19007KT P6SM SCT250
  FM251400 21012G20KT P6SM SCT250


KEWN 242154Z 20007KT 6SM HZ FEW037 SCT047 BKN065 24/17 A3012 RMK AO2 SLP199 T02440172

KEWN 241723Z 2418/2518 23011G17KT P6SM SCT040
  TEMPO 2418/2419 BKN025
  FM242300 19008KT P6SM SCT250
  FM251000 21006KT P6SM BKN010
  FM251400 21012G20KT P6SM SCT040


KNKT 242058Z 20012KT 7SM SKC 24/19 A3014 RMK SLP202 T02440189 56017

TAF KNKT 2421/2521 21013G20KT 9999 SCT030 QNH3012INS
  BECMG 2504/2506 20006KT 9999 SKC QNH3008INS T18/2506Z T26/2518Z


KILM 242153Z 22011KT 10SM CLR 24/17 A3014 RMK AO2 SLP204 T02390167

KILM 241720Z 2418/2518 22009KT P6SM SCT035
  FM242200 20010KT P6SM SCT250
  TEMPO 2509/2512 3SM BR SCT005
  FM251300 22012G19KT P6SM FEW020 SCT250


KCAE 242056Z 21012KT 10SM SCT050 SCT070 28/15 A3008 RMK AO2 SLP182 T02780150 56032

KCAE 242111Z 2421/2518 21010G16KT P6SM SCT045
  FM250000 18006KT P6SM FEW035
  FM250800 20005KT 5SM BR BKN012
  FM251500 22012G18KT P6SM SCT012 BKN035


KSSC 242056Z AUTO 17006KT 10SM SCT048 28/14 A3007 RMK AO2 SLP183 T02760142 57030

TAF AMD KSSC 242005Z 2420/2522 20012G18KT 9999 FEW020 SCT035 QNH3008INS
  BECMG 2422/2423 19009KT 9999 FEW040 QNH3006INS
  BECMG 2505/2506 20006KT 6000 BR SCT010 510051 QNH3004INS
  BECMG 2508/2509 20006KT 3200 BR OVC003 510052 QNH3008INS
  BECMG 2513/2514 21009KT 4800 BR SCT005 510052 QNH3007INS
  BECMG 2514/2515 22012KT 9999 NSW SCT015 QNH3006INS
  BECMG 2517/2518 25015G25KT 9999 SCT035 QNH3004INS TX28/2421Z TN17/2512Z


KMMT 242056Z 17011KT 10SM BKN050 28/14 A3009 RMK AO2A SLP191 T02780141 57031 $

TAF AMD KMMT 242005Z 2420/2522 20010G15KT 9999 SCT030 QNH3008INS
  BECMG 2422/2423 19009KT 9999 SCT040 QNH3006INS
  BECMG 2505/2506 21006KT 6000 BR SCT010 510051 QNH3004INS
  BECMG 2508/2509 22006KT 3200 BR OVC003 510052 QNH3006INS
  BECMG 2513/2514 23009KT 4800 BR SCT005 510052 QNH3007INS
  BECMG 2514/2515 23012KT 9999 NSW SCT015 QNH3006INS
  BECMG 2517/2518 25015G25KT 9999 SCT035 QNH3004INS TX28/2421Z TN17/2512Z


KMYR 242056Z 19015KT 10SM SCT075 23/18 A3014 RMK AO2 SLP207 T02280178 56025

KMYR 241720Z 2418/2518 22008KT P6SM SCT035
  FM242000 18011KT P6SM SCT250
  TEMPO 2509/2512 3SM BR SCT005
  FM251300 22011KT P6SM FEW020 SCT250


KCHS 242056Z 20015KT 10SM FEW028 26/16 A3013 RMK AO2 SLP203 T02610161 56024

KCHS 241720Z 2418/2518 20012KT P6SM SCT035
  FM250000 20005KT P6SM SCT250
  FM250800 19003KT 6SM BR SCT004
  FM251400 22009KT P6SM FEW035 SCT250


KSAV 242153Z 18013KT 10SM FEW050 26/16 A3012 RMK AO2 SLP199 T02610156

KSAV 241720Z 2418/2518 18010KT P6SM SCT035
  FM250000 16005KT P6SM SCT250
  FM250800 19003KT 6SM BR SCT005
  FM251400 21009KT P6SM FEW035 FEW250


KSVN 242056Z AUTO 15010KT 10SM CLR 25/19 A3011 RMK AO2 SLP199 T02510194 57024 $

TAF KSVN 242100Z 2421/2603 17012KT 9999 FEW035 QNH3010INS
  BECMG 2502/2503 19006KT 9999 SCT025 QNH3012INS
  BECMG 2505/2506 20006KT 6000 BR SCT015 QNH3013INS
  BECMG 2508/2509 21006KT 3200 BR SCT005 BKN015 QNH3014INS
  TEMPO 2509/2513 0800 FG OVC005
  BECMG 2514/2515 23009KT 9999 NSW SCT015 BKN030 QNH3012INS
  BECMG 2517/2518 23012G20KT 9999 SCT035 QNH3010INS
  BECMG 2522/2523 23009KT 9999 BKN030 QNH3008INS TX28/2521Z TN16/2512Z


KDCA 242152Z 06012KT 7SM -RA OVC011 11/09 A3012 RMK AO2 SLP198 P0002 T01060094

KDCA 242049Z 2421/2524 06004KT 6SM -SHRA BR OVC007
  FM242200 06006KT 5SM -SHRA BR OVC007
  FM250000 04006KT 3SM BR OVC007
  FM250300 06006KT 3SM -SHRA BR OVC008
  FM250600 08005KT 1SM -SHRA BR OVC003
  FM251300 19008KT 3SM -SHRA OVC003 WS020/22035KT
  FM251600 20009KT 3SM -SHRA OVC015
  FM252100 24009KT P6SM BKN025


KADW 242101Z AUTO 05007KT 10SM -RA OVC007 10/10 A3011 RMK AO2 CIG 005V007 CIG 006 RWY19L SLP204 $

TAF AMD KADW 242120Z 2421/2523 05006KT 9000 -RA OVC007 QNH3000INS
  BECMG 2505/2506 VRB05KT 6000 -RA BR OVC008 540084 QNH3000INS TX15/2517Z TN07/2509Z